createdAt,value
2019-05-02T00:05:00.269Z,38.00
2019-05-02T00:10:05.167Z,37.33
2019-05-02T00:15:07.250Z,38.07
2019-05-02T00:20:10.519Z,36.57
2019-05-02T00:25:16.075Z,37.53
2019-05-02T00:30:18.642Z,37.13
2019-05-02T00:35:20.217Z,37.77
2019-05-02T00:40:26.077Z,37.27
2019-05-02T00:45:25.944Z,36.90
2019-05-02T00:50:29.558Z,37.30
2019-05-02T00:55:33.895Z,34.90
2019-05-02T01:00:39.334Z,36.07
2019-05-02T01:05:40.917Z,33.77
2019-05-02T01:10:42.394Z,33.67
2019-05-02T01:15:44.370Z,34.73
2019-05-02T01:20:47.312Z,33.43
2019-05-02T01:25:52.898Z,33.13
2019-05-02T01:31:02.991Z,33.03
2019-05-02T01:36:08.201Z,31.13
2019-05-02T01:41:10.068Z,30.27
2019-05-02T01:46:11.754Z,30.03
2019-05-02T01:51:13.333Z,29.70
2019-05-02T01:56:14.849Z,29.00
2019-05-02T02:01:21.403Z,28.47
2019-05-02T02:06:20.047Z,28.73
2019-05-02T02:11:21.670Z,27.30
2019-05-02T02:16:23.182Z,26.60
2019-05-02T02:21:25.561Z,26.73
2019-05-02T02:26:28.375Z,26.63
2019-05-02T02:31:29.901Z,26.03
2019-05-02T02:36:34.508Z,26.27
2019-05-02T02:41:35.260Z,25.70
2019-05-02T02:46:40.084Z,26.20
2019-05-02T02:51:42.018Z,25.33
2019-05-02T02:56:43.600Z,25.20
2019-05-02T03:01:45.077Z,24.27
2019-05-02T03:06:47.224Z,21.90
2019-05-02T03:12:09.066Z,24.07
2019-05-02T03:17:11.086Z,21.50
2019-05-02T03:22:12.726Z,21.67
2019-05-02T03:27:15.412Z,20.50
2019-05-02T03:32:32.041Z,19.43
2019-05-02T03:37:21.136Z,19.00
2019-05-02T03:42:22.968Z,17.93
2019-05-02T03:47:24.736Z,17.57
2019-05-02T03:52:26.416Z,17.57
2019-05-02T03:57:33.434Z,17.87
2019-05-02T04:02:32.797Z,19.00
2019-05-02T04:07:39.939Z,19.43
2019-05-02T04:12:40.124Z,17.43
2019-05-02T04:17:42.089Z,16.90
2019-05-02T04:22:49.079Z,17.47
2019-05-02T04:27:48.909Z,17.40
2019-05-02T04:32:55.718Z,17.00
2019-05-02T04:37:53.993Z,17.57
2019-05-02T04:43:02.082Z,17.60
2019-05-02T04:48:03.838Z,17.27
2019-05-02T04:53:02.324Z,17.83
2019-05-02T04:58:03.799Z,17.47
2019-05-02T05:03:07.319Z,17.40
2019-05-02T05:08:08.675Z,17.13
2019-05-02T05:13:12.148Z,16.30
2019-05-02T05:18:14.616Z,17.93
2019-05-02T05:23:21.365Z,15.97
2019-05-02T05:28:21.717Z,16.83
2019-05-02T05:33:23.292Z,16.40
2019-05-02T05:38:28.544Z,16.77
2019-05-02T05:43:28.275Z,17.27
2019-05-02T05:48:32.051Z,19.13
2019-05-02T05:53:33.279Z,21.73
2019-05-02T05:58:39.959Z,22.37
2019-05-02T06:03:42.005Z,21.10
2019-05-02T06:08:41.651Z,21.97
2019-05-02T06:13:48.940Z,21.43
2019-05-02T06:18:47.062Z,22.67
2019-05-02T06:23:48.587Z,19.20
2019-05-02T06:28:50.063Z,14.97
2019-05-02T06:33:51.598Z,14.90
2019-05-02T06:38:56.692Z,15.10
2019-05-02T06:43:56.497Z,14.30
2019-05-02T06:48:58.342Z,14.50
2019-05-02T06:53:59.962Z,15.27
2019-05-02T06:59:03.384Z,14.10
2019-05-02T07:04:05.117Z,15.17
2019-05-02T07:09:06.847Z,12.17
2019-05-02T07:14:13.682Z,13.43
2019-05-02T07:19:12.842Z,13.60
2019-05-02T07:24:14.868Z,15.03
2019-05-02T07:29:16.984Z,14.77
2019-05-02T07:34:19.896Z,14.33
2019-05-02T07:39:21.578Z,14.43
2019-05-02T07:44:27.093Z,12.93
2019-05-02T07:49:32.462Z,14.00
2019-05-02T07:54:30.033Z,13.33
2019-05-02T07:59:31.607Z,14.13
2019-05-02T08:04:33.222Z,14.00
2019-05-02T08:09:39.085Z,14.57
2019-05-02T08:14:39.990Z,15.47
2019-05-02T08:19:43.032Z,13.57
2019-05-02T08:24:45.014Z,15.90
2019-05-02T08:29:46.698Z,18.80
2019-05-02T08:34:51.972Z,18.10
2019-05-02T08:39:51.630Z,16.97
2019-05-02T08:44:56.376Z,15.90
2019-05-02T08:49:56.821Z,16.37
2019-05-02T08:54:58.477Z,15.03
2019-05-02T09:00:01.379Z,16.80
2019-05-02T09:05:06.056Z,16.83
2019-05-02T09:10:08.710Z,16.73
2019-05-02T09:15:11.906Z,14.90
2019-05-02T09:20:18.723Z,15.20
2019-05-02T09:25:18.924Z,15.43
2019-05-02T09:30:22.751Z,15.57
2019-05-02T09:35:25.151Z,15.27
2019-05-02T09:40:26.628Z,15.13
2019-05-02T09:45:33.343Z,15.93
2019-05-02T09:50:34.832Z,13.63
2019-05-02T09:55:43.804Z,13.37
2019-05-02T10:01:01.833Z,15.43
2019-05-02T10:06:03.937Z,14.87
2019-05-02T10:11:06.017Z,15.73
2019-05-02T10:16:07.696Z,16.53
2019-05-02T10:21:13.456Z,16.43
2019-05-02T10:26:19.820Z,18.07
2019-05-02T10:31:16.554Z,16.80
2019-05-02T10:36:19.672Z,17.47
2019-05-02T10:41:22.410Z,15.77
2019-05-02T10:46:33.430Z,16.33
2019-05-02T10:51:34.053Z,17.87
2019-05-02T10:56:35.812Z,15.30
2019-05-02T11:01:56.319Z,15.80
2019-05-02T11:06:58.527Z,16.23
2019-05-02T11:12:02.544Z,14.90
2019-05-02T11:17:13.832Z,16.87
2019-05-02T11:22:15.687Z,17.43
2019-05-02T11:27:17.273Z,17.27
2019-05-02T11:32:18.949Z,16.10
2019-05-02T11:37:22.515Z,15.53
2019-05-02T11:42:27.231Z,13.20
2019-05-02T11:47:27.523Z,13.77
2019-05-02T11:52:33.038Z,11.83
2019-05-02T11:57:33.184Z,11.97
2019-05-02T12:02:35.188Z,12.80
2019-05-02T12:07:37.058Z,11.10
2019-05-02T12:12:39.157Z,33.97
2019-05-02T12:17:41.950Z,11.63
2019-05-02T12:22:43.975Z,9.40
2019-05-02T12:27:46.580Z,9.57
2019-05-02T12:32:48.069Z,10.43
2019-05-02T12:37:53.675Z,10.67
2019-05-02T12:42:53.382Z,9.90
2019-05-02T12:47:54.864Z,10.23
2019-05-02T12:52:57.440Z,11.10
2019-05-02T12:57:59.064Z,10.13
2019-05-02T13:03:11.644Z,9.37
2019-05-02T13:08:13.374Z,9.90
2019-05-02T13:13:17.432Z,10.00
2019-05-02T13:18:23.335Z,10.37
2019-05-02T13:23:27.397Z,9.27
2019-05-02T13:28:26.807Z,10.07
2019-05-02T13:33:31.803Z,9.07
2019-05-02T13:38:35.283Z,9.47
2019-05-02T13:43:38.871Z,9.00
2019-05-02T13:48:42.740Z,8.10
2019-05-02T13:53:47.104Z,9.13
2019-05-02T13:58:49.037Z,9.13
2019-05-02T14:03:53.674Z,9.33
2019-05-02T14:08:56.282Z,9.53
2019-05-02T14:13:57.963Z,8.93
2019-05-02T14:18:59.447Z,9.37
2019-05-02T14:24:01.697Z,9.20
2019-05-02T14:29:07.136Z,9.77
2019-05-02T14:34:21.924Z,9.70
2019-05-02T14:39:23.407Z,8.50
2019-05-02T14:44:28.741Z,8.73
2019-05-02T14:49:28.482Z,8.33
2019-05-02T14:54:32.272Z,8.30
2019-05-02T14:59:33.899Z,8.80
2019-05-02T15:04:38.283Z,8.53
2019-05-02T15:09:39.125Z,8.50
2019-05-02T15:14:40.636Z,8.87
2019-05-02T15:19:42.739Z,8.77
2019-05-02T15:24:44.419Z,9.17
2019-05-02T15:29:45.905Z,9.63
2019-05-02T15:34:56.306Z,9.03
2019-05-02T15:45:05.905Z,8.83
2019-05-02T15:50:08.062Z,9.17
2019-05-02T15:55:11.577Z,11.17
2019-05-02T16:00:23.124Z,10.50
2019-05-02T16:05:23.858Z,12.00
2019-05-02T16:10:25.514Z,11.00
2019-05-02T16:15:27.094Z,12.37
2019-05-02T16:20:32.278Z,12.23
2019-05-02T16:25:34.177Z,12.93
2019-05-02T16:30:36.983Z,11.43
2019-05-02T16:35:39.768Z,11.30
2019-05-02T16:40:41.897Z,12.30
2019-05-02T16:45:44.055Z,12.47
2019-05-02T16:50:45.732Z,12.87
2019-05-02T16:55:47.214Z,12.47
2019-05-02T17:00:48.888Z,15.80
2019-05-02T17:05:54.136Z,13.87
2019-05-02T17:10:57.012Z,13.40
2019-05-02T17:15:58.673Z,13.57
2019-05-02T17:21:01.700Z,15.10
2019-05-02T17:26:03.983Z,15.40
2019-05-02T17:31:10.113Z,16.87
2019-05-02T17:36:09.431Z,29.13
2019-05-02T17:41:11.883Z,20.23
2019-05-02T17:46:18.651Z,17.80
2019-05-02T17:51:22.733Z,23.83
2019-05-02T17:56:25.066Z,23.03
2019-05-02T18:01:33.324Z,20.20
2019-05-02T18:06:35.523Z,20.93
2019-05-02T18:11:37.766Z,24.60
2019-05-02T18:16:39.486Z,23.53
2019-05-02T18:21:41.903Z,21.97
2019-05-02T18:26:43.497Z,24.00
2019-05-02T18:31:47.249Z,94.90
2019-05-02T18:36:48.454Z,39.17
2019-05-02T18:41:51.932Z,51.90
2019-05-02T18:46:53.585Z,40.57
2019-05-02T18:51:57.396Z,23.07
2019-05-02T18:56:58.630Z,22.60
2019-05-02T19:02:02.154Z,23.40
2019-05-02T19:07:07.562Z,23.40
2019-05-02T19:12:13.869Z,22.53
2019-05-02T19:17:12.491Z,23.00
2019-05-02T19:22:17.024Z,22.07
2019-05-02T19:27:21.076Z,19.00
2019-05-02T19:32:27.267Z,26.83
2019-05-02T19:37:26.683Z,20.40
2019-05-02T19:42:28.257Z,18.97
2019-05-02T19:47:31.697Z,20.67
2019-05-02T19:52:38.921Z,21.50
2019-05-02T19:57:37.347Z,24.20
2019-05-02T20:02:42.267Z,25.07
2019-05-02T20:07:42.862Z,25.17
2019-05-02T20:12:48.212Z,26.00
2019-05-02T20:17:48.047Z,25.83
2019-05-02T20:22:49.937Z,27.03
2019-05-02T20:27:52.587Z,26.87
2019-05-02T20:32:54.288Z,28.37
2019-05-02T20:37:55.767Z,29.33
2019-05-02T20:42:57.335Z,28.53
2019-05-02T20:47:59.426Z,29.37
2019-05-02T20:53:01.963Z,30.77
2019-05-02T20:58:03.895Z,34.87
2019-05-02T21:03:05.467Z,38.20
2019-05-02T21:08:22.556Z,36.10
2019-05-02T21:13:24.882Z,36.13
2019-05-02T21:18:26.755Z,35.30
2019-05-02T21:23:40.654Z,47.10
2019-05-02T21:28:32.253Z,34.10
2019-05-02T21:33:38.612Z,34.83
2019-05-02T21:38:42.559Z,34.03
2019-05-02T21:43:44.080Z,37.93
2019-05-02T21:48:45.559Z,30.87
2019-05-02T21:53:58.558Z,31.17
2019-05-02T21:59:07.267Z,29.07
2019-05-02T22:04:09.122Z,30.60
2019-05-02T22:09:12.260Z,28.50
2019-05-02T22:14:14.919Z,25.43
2019-05-02T22:19:16.492Z,28.33
2019-05-02T22:24:17.980Z,25.33
2019-05-02T22:29:21.699Z,25.40
2019-05-02T22:34:23.322Z,25.90
2019-05-02T22:39:42.054Z,28.13
2019-05-02T22:44:43.910Z,27.97
2019-05-02T22:49:45.392Z,25.93
2019-05-02T22:54:46.915Z,24.43
2019-05-02T22:59:48.401Z,26.47
2019-05-02T23:04:52.409Z,24.70
2019-05-02T23:09:53.711Z,22.87
2019-05-02T23:14:55.288Z,24.47
2019-05-02T23:19:56.862Z,25.40
2019-05-02T23:25:17.167Z,25.13
2019-05-02T23:30:22.554Z,25.17
2019-05-02T23:35:24.230Z,27.00
2019-05-02T23:40:25.750Z,26.73
2019-05-02T23:45:27.337Z,25.53
2019-05-02T23:50:28.811Z,24.87
2019-05-02T23:55:32.096Z,24.43
